Time;durP1;ratioP1;P1;durP2;ratioP2;P2;SDS_P1;SDS_P2;PMS_P1;PMS_P2;Temp;Humidity;BMP_temperature;BMP_pressure;BME280_temperature;BME280_humidity;BME280_pressure;Samples;Min_cycle;Max_cycle;Signal;HPM_P1;HPM_P2
2023/01/02 00:01:45;;;;;;;8.05;5.63;;;11.00;88.80;;;;;;5131225;28;20046;-71
2023/01/02 00:04:11;;;;;;;8.60;5.70;;;11.10;89.00;;;;;;5114383;27;20039;-71
2023/01/02 00:06:37;;;;;;;9.60;5.90;;;11.10;89.00;;;;;;5114244;28;20038;-71
2023/01/02 00:09:05;;;;;;;10.07;6.40;;;11.10;89.00;;;;;;5128607;28;20034;-71
2023/01/02 00:11:31;;;;;;;8.10;6.25;;;11.10;89.00;;;;;;5131216;28;20080;-71
2023/01/02 00:13:57;;;;;;;7.28;5.85;;;11.10;89.00;;;;;;5113683;28;20046;-71
2023/01/02 00:16:23;;;;;;;7.78;5.72;;;11.10;89.10;;;;;;5113776;27;20039;-71
2023/01/02 00:18:49;;;;;;;9.57;5.75;;;11.10;89.00;;;;;;5131397;27;20518;-71
2023/01/02 00:21:16;;;;;;;7.60;5.90;;;11.10;89.10;;;;;;5128360;28;20039;-71
2023/01/02 00:23:42;;;;;;;10.00;6.43;;;11.20;89.10;;;;;;5128248;28;20481;-71
2023/01/02 00:26:08;;;;;;;10.27;6.90;;;11.20;89.10;;;;;;5131047;28;20047;-71
2023/01/02 00:28:35;;;;;;;9.63;6.18;;;11.20;89.10;;;;;;5130497;27;20108;-69
2023/01/02 00:31:09;;;;;;;8.50;6.55;;;11.20;89.10;;;;;;5130620;28;20047;-69
2023/01/02 00:33:36;;;;;;;8.20;6.43;;;11.20;89.10;;;;;;5129781;28;20065;-69
2023/01/02 00:36:06;;;;;;;13.57;6.90;;;11.20;89.00;;;;;;5131171;27;20359;-69
2023/01/02 00:38:32;;;;;;;12.70;6.90;;;11.20;89.00;;;;;;5114056;28;20045;-69
2023/01/02 00:40:59;;;;;;;11.95;7.88;;;11.20;89.00;;;;;;5113806;28;20069;-69
2023/01/02 00:43:25;;;;;;;14.77;8.05;;;11.20;89.00;;;;;;5131094;27;20385;-69
2023/01/02 00:45:51;;;;;;;13.77;7.43;;;11.20;89.10;;;;;;5130616;27;20035;-69
2023/01/02 00:48:16;;;;;;;10.98;7.53;;;11.20;89.10;;;;;;5134548;27;20080;-69
2023/01/02 00:50:43;;;;;;;9.60;6.70;;;11.20;89.10;;;;;;5134087;27;20381;-69
2023/01/02 00:53:09;;;;;;;10.80;7.60;;;11.20;89.10;;;;;;5134492;27;20117;-69
2023/01/02 00:55:34;;;;;;;10.88;7.70;;;11.20;89.10;;;;;;5134414;27;20432;-69
2023/01/02 00:58:00;;;;;;;11.65;7.22;;;11.20;89.10;;;;;;5134529;27;20035;-69
2023/01/02 01:00:26;;;;;;;11.32;7.35;;;11.30;89.20;;;;;;5116947;27;20089;-69
2023/01/02 01:02:58;;;;;;;13.23;8.13;;;11.30;89.20;;;;;;5133779;27;20088;-69
2023/01/02 01:05:25;;;;;;;12.95;8.40;;;11.30;89.30;;;;;;5134771;27;20063;-69
2023/01/02 01:07:52;;;;;;;15.10;9.02;;;11.30;89.20;;;;;;5117279;27;20106;-69
2023/01/02 01:10:18;;;;;;;13.27;7.72;;;11.30;89.20;;;;;;5133964;27;20047;-69
2023/01/02 01:12:43;;;;;;;13.50;8.13;;;11.30;89.20;;;;;;5133993;27;20084;-69
2023/01/02 01:15:09;;;;;;;14.73;8.63;;;11.30;89.20;;;;;;5117231;27;20039;-69
2023/01/02 01:17:35;;;;;;;11.32;7.88;;;11.30;89.30;;;;;;5099791;27;20486;-69
2023/01/02 01:20:01;;;;;;;13.43;8.65;;;11.30;89.30;;;;;;5116158;27;20078;-69
2023/01/02 01:22:26;;;;;;;13.32;8.18;;;11.30;89.30;;;;;;5116954;27;20500;-69
2023/01/02 01:24:52;;;;;;;9.98;7.32;;;11.30;89.30;;;;;;5133285;27;20031;-69
2023/01/02 01:27:18;;;;;;;12.98;7.22;;;11.40;89.40;;;;;;5133859;27;20047;-69
2023/01/02 01:29:43;;;;;;;11.48;7.65;;;11.40;89.40;;;;;;5134834;27;20038;-69
2023/01/02 01:32:09;;;;;;;13.55;7.43;;;11.40;89.40;;;;;;5133796;27;20385;-69
2023/01/02 01:34:35;;;;;;;11.88;7.93;;;11.40;89.40;;;;;;5116427;27;20032;-69
2023/01/02 01:37:00;;;;;;;12.90;8.57;;;11.40;89.40;;;;;;5098019;27;20119;-69
2023/01/02 01:39:26;;;;;;;10.57;7.70;;;11.40;89.50;;;;;;5116066;27;20035;-68
2023/01/02 01:41:52;;;;;;;12.20;8.43;;;11.40;89.50;;;;;;5133368;27;20032;-69
2023/01/02 01:44:41;;;;;;;11.30;7.63;;;11.40;89.50;;;;;;5133165;27;20039;-69
2023/01/02 01:47:32;;;;;;;11.95;7.75;;;11.40;89.60;;;;;;5132994;27;20155;-69
2023/01/02 01:50:08;;;;;;;12.13;7.32;;;11.50;89.70;;;;;;5133071;27;20504;-69
2023/01/02 01:52:38;;;;;;;11.48;7.75;;;11.50;89.70;;;;;;5132864;27;20051;-69
2023/01/02 01:55:15;;;;;;;10.32;8.32;;;11.50;89.60;;;;;;5149285;27;20039;-69
2023/01/02 01:57:50;;;;;;;14.07;8.40;;;11.50;89.70;;;;;;5132314;27;20043;-69
2023/01/02 02:00:15;;;;;;;9.98;7.97;;;11.50;89.80;;;;;;5133001;27;20027;-69
2023/01/02 02:02:44;;;;;;;14.32;8.52;;;11.50;89.70;;;;;;5116389;27;20035;-69
2023/01/02 02:05:12;;;;;;;14.57;8.55;;;11.50;89.80;;;;;;5132731;27;20428;-69
2023/01/02 02:07:43;;;;;;;14.82;8.98;;;11.50;89.70;;;;;;5132969;27;20122;-69
2023/01/02 02:10:10;;;;;;;14.65;8.07;;;11.50;89.70;;;;;;5132576;27;20398;-69
2023/01/02 02:12:36;;;;;;;14.57;8.65;;;11.50;89.70;;;;;;5132880;27;20038;-69
2023/01/02 02:15:03;;;;;;;13.90;8.95;;;11.50;89.70;;;;;;5132744;27;20534;-69
2023/01/02 02:18:14;;;;;;;14.57;8.68;;;11.60;89.80;;;;;;5115306;27;20088;-69
2023/01/02 02:20:54;;;;;;;12.80;8.90;;;11.60;89.80;;;;;;5119895;27;20371;-69
2023/01/02 02:23:29;;;;;;;15.23;8.55;;;11.50;89.80;;;;;;5131607;27;20041;-69
2023/01/02 02:26:36;;;;;;;16.85;9.35;;;11.60;89.80;;;;;;5130325;27;20392;-70
2023/01/02 02:29:38;;;;;;;11.88;8.35;;;11.60;89.80;;;;;;5132606;27;20039;-70
2023/01/02 02:32:43;;;;;;;15.20;9.43;;;11.60;89.80;;;;;;5115671;27;20042;-71
2023/01/02 02:35:32;;;;;;;15.63;9.13;;;11.60;89.80;;;;;;5132694;27;20066;-71
2023/01/02 02:38:37;;;;;;;13.27;8.38;;;11.60;89.80;;;;;;5132612;27;20056;-71
2023/01/02 02:41:03;;;;;;;15.30;8.77;;;11.60;89.80;;;;;;5136220;27;20065;-70
2023/01/02 02:43:54;;;;;;;15.48;8.80;;;11.60;89.70;;;;;;5131990;27;20035;-70
2023/01/02 02:46:34;;;;;;;13.05;8.13;;;11.60;89.80;;;;;;5130609;27;20035;-70
2023/01/02 02:49:21;;;;;;;13.02;8.35;;;11.60;89.80;;;;;;5132297;27;20514;-70
2023/01/02 02:52:01;;;;;;;16.40;8.48;;;11.70;89.90;;;;;;5130915;27;20043;-70
2023/01/02 02:54:36;;;;;;;14.30;7.85;;;11.70;89.90;;;;;;5115077;27;20081;-70
2023/01/02 02:57:04;;;;;;;10.18;7.38;;;11.70;89.90;;;;;;5131819;27;20046;-70
2023/01/02 02:59:33;;;;;;;13.25;7.95;;;11.70;89.80;;;;;;5131822;27;20482;-70
2023/01/02 03:01:59;;;;;;;12.30;7.68;;;11.60;89.70;;;;;;5132292;27;20386;-70
2023/01/02 03:04:24;;;;;;;15.52;8.35;;;11.70;89.70;;;;;;5131984;27;20088;-70
2023/01/02 03:07:27;;;;;;;15.40;8.27;;;11.70;89.70;;;;;;5114388;27;21601;-70
2023/01/02 03:09:59;;;;;;;12.07;7.13;;;11.70;89.70;;;;;;5128553;27;20486;-70
2023/01/02 03:12:24;;;;;;;11.68;7.35;;;11.70;89.70;;;;;;5131864;27;20122;-69
2023/01/02 03:15:05;;;;;;;14.23;7.90;;;11.70;89.60;;;;;;5131817;27;20134;-69
2023/01/02 03:17:52;;;;;;;12.68;7.20;;;11.70;89.70;;;;;;5130863;27;20047;-69
2023/01/02 03:20:22;;;;;;;12.50;7.50;;;11.70;89.60;;;;;;5131668;27;20084;-69
2023/01/02 03:22:54;;;;;;;12.98;7.57;;;11.70;89.60;;;;;;5132086;27;20442;-69
2023/01/02 03:25:21;;;;;;;14.90;8.30;;;11.70;89.60;;;;;;5114484;27;20027;-69
2023/01/02 03:27:49;;;;;;;14.05;8.32;;;11.70;89.60;;;;;;5131393;27;20046;-69
2023/01/02 03:30:20;;;;;;;13.13;7.95;;;11.70;89.70;;;;;;5129693;27;20133;-69
2023/01/02 03:33:07;;;;;;;14.63;8.18;;;11.70;89.70;;;;;;5131076;27;20046;-69
2023/01/02 03:35:39;;;;;;;20.05;8.95;;;11.70;89.60;;;;;;5131078;27;20486;-69
2023/01/02 03:38:10;;;;;;;12.02;8.48;;;11.70;89.60;;;;;;5131209;27;20039;-69
2023/01/02 03:40:45;;;;;;;16.50;9.05;;;11.70;89.60;;;;;;5131073;27;20046;-69
2023/01/02 03:43:15;;;;;;;13.15;8.35;;;11.70;89.70;;;;;;5131296;27;20035;-69
2023/01/02 03:45:52;;;;;;;14.60;9.00;;;11.70;89.60;;;;;;5131132;27;20081;-70
2023/01/02 03:48:40;;;;;;;14.50;7.82;;;11.80;89.80;;;;;;5130878;27;20100;-69
2023/01/02 03:51:06;;;;;;;12.13;7.57;;;11.70;89.70;;;;;;5130930;28;20132;-68
2023/01/02 03:53:34;;;;;;;12.88;7.60;;;11.70;89.70;;;;;;5131034;28;20091;-69
2023/01/02 03:56:18;;;;;;;11.57;8.00;;;11.80;89.70;;;;;;5131255;27;20070;-69
2023/01/02 03:59:07;;;;;;;12.30;7.70;;;11.80;89.70;;;;;;5131229;28;20046;-69
2023/01/02 04:01:43;;;;;;;12.98;7.45;;;11.80;89.80;;;;;;5130905;28;20043;-69
2023/01/02 04:04:34;;;;;;;12.85;8.10;;;11.80;89.90;;;;;;5130986;28;20115;-69
2023/01/02 04:07:03;;;;;;;16.00;8.85;;;11.80;89.90;;;;;;5114009;28;20390;-69
2023/01/02 04:09:32;;;;;;;12.75;7.68;;;11.80;89.80;;;;;;5130921;27;20046;-68
2023/01/02 04:12:04;;;;;;;11.88;7.82;;;11.80;89.90;;;;;;5132408;27;20054;-69
2023/01/02 04:14:47;;;;;;;10.85;8.35;;;11.80;89.90;;;;;;5131183;28;20520;-69
2023/01/02 04:17:15;;;;;;;14.63;7.85;;;11.80;89.90;;;;;;5128465;28;20043;-69
2023/01/02 04:20:04;;;;;;;15.32;8.02;;;11.80;90.00;;;;;;5130942;28;20043;-69
2023/01/02 04:22:42;;;;;;;13.23;7.35;;;11.80;89.90;;;;;;5133569;27;20027;-69
2023/01/02 04:25:14;;;;;;;15.65;7.75;;;11.80;89.90;;;;;;5134077;27;20118;-69
2023/01/02 04:27:45;;;;;;;16.08;8.23;;;11.90;90.00;;;;;;5134748;27;20046;-69
2023/01/02 04:30:11;;;;;;;13.80;8.52;;;11.90;90.00;;;;;;5135074;27;20550;-69
2023/01/02 04:32:41;;;;;;;11.43;8.13;;;11.90;90.00;;;;;;5117765;27;20122;-71
2023/01/02 04:35:13;;;;;;;15.05;7.93;;;11.90;90.00;;;;;;5132256;27;20114;-70
2023/01/02 04:37:41;;;;;;;14.20;8.05;;;11.90;90.00;;;;;;5134109;27;20035;-69
2023/01/02 04:40:20;;;;;;;13.65;7.82;;;11.90;90.00;;;;;;5134561;27;20556;-69
2023/01/02 04:42:46;;;;;;;12.57;8.15;;;11.90;90.00;;;;;;5129832;27;20031;-69
2023/01/02 04:45:12;;;;;;;12.95;7.93;;;11.90;90.00;;;;;;5117031;27;20103;-69
2023/01/02 04:47:38;;;;;;;14.02;8.15;;;11.90;90.00;;;;;;5134365;27;20059;-69
2023/01/02 04:50:05;;;;;;;15.55;7.82;;;11.90;90.00;;;;;;5134838;27;20105;-68
2023/01/02 04:52:31;;;;;;;13.20;7.78;;;11.90;90.00;;;;;;5134339;27;20390;-68
2023/01/02 04:54:57;;;;;;;11.18;7.53;;;11.90;90.00;;;;;;5134067;27;20039;-68
2023/01/02 04:57:22;;;;;;;11.52;6.47;;;11.90;90.00;;;;;;5134055;27;20039;-68
2023/01/02 04:59:48;;;;;;;10.68;7.25;;;11.90;90.00;;;;;;5149078;27;20394;-68
2023/01/02 05:02:14;;;;;;;13.15;7.07;;;11.90;90.00;;;;;;5133848;27;20474;-68
2023/01/02 05:04:40;;;;;;;11.90;7.22;;;11.90;90.00;;;;;;5117305;27;20035;-69
2023/01/02 05:07:05;;;;;;;12.57;8.30;;;12.00;90.00;;;;;;5133965;27;20477;-69
2023/01/02 05:09:31;;;;;;;15.95;8.50;;;12.00;90.00;;;;;;5134318;27;20092;-69
2023/01/02 05:11:57;;;;;;;16.92;8.88;;;11.90;89.90;;;;;;5133599;27;20431;-68
2023/01/02 05:14:23;;;;;;;12.18;8.00;;;12.00;90.00;;;;;;5133367;27;20042;-68
2023/01/02 05:16:48;;;;;;;11.93;8.23;;;12.00;90.00;;;;;;5133864;27;20449;-68
2023/01/02 05:19:14;;;;;;;12.68;7.82;;;12.00;90.00;;;;;;5116534;27;20101;-68
2023/01/02 05:24:25;;;;;;;14.80;8.15;;;12.00;90.00;;;;;;5133681;27;20140;-68
2023/01/02 05:26:51;;;;;;;10.63;7.63;;;12.00;90.00;;;;;;5133632;27;20039;-69
2023/01/02 05:29:17;;;;;;;14.95;7.57;;;12.00;90.00;;;;;;5133851;27;20100;-68
2023/01/02 05:31:42;;;;;;;13.18;8.23;;;12.00;90.00;;;;;;5133909;27;20061;-68
2023/01/02 05:34:13;;;;;;;11.60;7.30;;;12.00;90.00;;;;;;5132692;27;20046;-68
2023/01/02 05:36:39;;;;;;;17.33;9.77;;;12.00;90.00;;;;;;5133472;27;20084;-68
2023/01/02 05:39:12;;;;;;;14.68;8.52;;;12.00;90.00;;;;;;5133405;27;20077;-68
2023/01/02 05:41:39;;;;;;;11.87;8.33;;;12.00;90.00;;;;;;5134535;27;20088;-68
2023/01/02 05:44:09;;;;;;;13.55;8.88;;;12.00;90.00;;;;;;5115842;27;20035;-68
2023/01/02 05:46:36;;;;;;;14.65;8.48;;;12.00;90.00;;;;;;5133838;27;20043;-68
2023/01/02 05:49:06;;;;;;;15.38;8.68;;;12.00;90.00;;;;;;5133734;27;20046;-68
2023/01/02 05:51:32;;;;;;;16.67;8.98;;;12.10;90.10;;;;;;5133236;27;20306;-68
2023/01/02 05:53:58;;;;;;;13.20;8.57;;;12.10;90.00;;;;;;5116082;27;20039;-68
2023/01/02 05:56:26;;;;;;;13.25;8.98;;;12.00;90.00;;;;;;5133185;27;20074;-68
2023/01/02 05:58:52;;;;;;;14.82;8.75;;;12.10;90.10;;;;;;5133126;27;20095;-68
2023/01/02 06:01:27;;;;;;;9.38;7.57;;;12.00;90.00;;;;;;5133203;27;20035;-68
2023/01/02 06:03:58;;;;;;;11.25;7.75;;;12.10;90.10;;;;;;5133409;27;20141;-68
2023/01/02 06:06:28;;;;;;;11.20;8.57;;;12.10;90.00;;;;;;5134454;27;20035;-68
2023/01/02 06:08:54;;;;;;;12.07;8.65;;;12.10;90.00;;;;;;5134099;27;20054;-68
2023/01/02 06:11:20;;;;;;;13.55;8.38;;;12.10;90.00;;;;;;5134271;27;20035;-68
2023/01/02 06:13:45;;;;;;;12.32;8.25;;;12.00;90.00;;;;;;5116905;27;20591;-68
2023/01/02 06:16:11;;;;;;;13.48;8.75;;;12.10;90.00;;;;;;5117043;27;20122;-68
2023/01/02 06:18:38;;;;;;;14.25;8.98;;;12.10;90.00;;;;;;5116340;27;20039;-68
2023/01/02 06:21:12;;;;;;;12.57;8.68;;;12.10;90.00;;;;;;5134264;27;20043;-69
2023/01/02 06:23:39;;;;;;;11.93;8.55;;;12.10;90.00;;;;;;5133874;27;20049;-68
2023/01/02 06:26:06;;;;;;;11.95;8.27;;;12.10;90.00;;;;;;5133926;27;20106;-68
2023/01/02 06:28:33;;;;;;;11.32;8.45;;;12.10;90.00;;;;;;5133873;27;20070;-68
2023/01/02 06:31:07;;;;;;;15.38;8.77;;;12.10;90.00;;;;;;5133617;27;20130;-68
2023/01/02 06:33:33;;;;;;;12.60;8.50;;;12.10;90.00;;;;;;5134897;27;20027;-68
2023/01/02 06:36:02;;;;;;;12.98;8.18;;;12.10;90.00;;;;;;5133748;27;20031;-68
2023/01/02 06:38:28;;;;;;;11.05;7.88;;;12.10;90.10;;;;;;5116601;27;20096;-68
2023/01/02 06:40:58;;;;;;;9.32;6.30;;;12.10;90.00;;;;;;5133876;27;20386;-68
2023/01/02 06:43:25;;;;;;;7.93;5.88;;;12.10;90.00;;;;;;5134595;27;20114;-68
2023/01/02 06:45:51;;;;;;;6.65;4.63;;;12.10;90.00;;;;;;5133473;27;20038;-68
2023/01/02 06:48:17;;;;;;;5.20;3.90;;;12.10;89.90;;;;;;5116381;27;20129;-68
2023/01/02 06:50:44;;;;;;;4.07;3.47;;;12.10;89.80;;;;;;5133276;27;20551;-68
2023/01/02 06:53:10;;;;;;;3.08;2.60;;;12.00;89.60;;;;;;5133401;27;20043;-68
2023/01/02 06:55:36;;;;;;;3.30;2.47;;;12.00;89.40;;;;;;5132844;27;20485;-68
2023/01/02 06:58:02;;;;;;;3.75;2.30;;;12.00;89.20;;;;;;5115815;27;20039;-68
2023/01/02 07:00:27;;;;;;;3.00;2.30;;;11.90;88.90;;;;;;5133312;27;20090;-68
2023/01/02 07:02:53;;;;;;;3.03;2.72;;;11.90;88.70;;;;;;5133190;27;20482;-68
2023/01/02 07:05:19;;;;;;;3.47;3.05;;;11.90;88.40;;;;;;5133455;27;20070;-68
2023/01/02 07:07:44;;;;;;;3.55;2.97;;;11.80;88.10;;;;;;5132946;27;20378;-68
2023/01/02 07:10:10;;;;;;;3.78;3.22;;;11.80;88.00;;;;;;5116141;27;20143;-68
2023/01/02 07:12:36;;;;;;;4.47;3.83;;;11.80;87.90;;;;;;5132927;27;20054;-69
2023/01/02 07:15:06;;;;;;;6.65;5.22;;;11.80;87.70;;;;;;5150395;27;20412;-68
2023/01/02 07:17:32;;;;;;;7.50;5.72;;;11.70;87.50;;;;;;5132790;27;20051;-68
2023/01/02 07:19:59;;;;;;;6.22;5.50;;;11.70;87.30;;;;;;5132950;27;20050;-68
2023/01/02 07:22:25;;;;;;;7.13;5.60;;;11.60;87.10;;;;;;5132747;27;20035;-68
2023/01/02 07:24:51;;;;;;;8.35;6.88;;;11.60;87.00;;;;;;5132156;27;20506;-68
2023/01/02 07:27:16;;;;;;;8.60;6.45;;;11.60;86.90;;;;;;5115347;27;20043;-69
2023/01/02 07:29:42;;;;;;;7.38;5.65;;;11.50;86.60;;;;;;5132637;27;20375;-70
2023/01/02 07:32:08;;;;;;;7.40;5.10;;;11.50;86.30;;;;;;5132483;27;20039;-70
2023/01/02 07:34:33;;;;;;;8.65;5.72;;;11.40;86.50;;;;;;5115589;27;20039;-70
2023/01/02 07:36:59;;;;;;;8.23;5.15;;;11.40;85.90;;;;;;5132593;27;20055;-70
2023/01/02 07:39:25;;;;;;;7.50;5.07;;;11.30;85.70;;;;;;5132608;27;20370;-70
2023/01/02 07:41:50;;;;;;;6.10;4.82;;;11.20;85.60;;;;;;5115175;27;20066;-70
2023/01/02 07:44:16;;;;;;;5.97;4.30;;;11.20;85.60;;;;;;5115382;28;20043;-70
2023/01/02 07:46:41;;;;;;;6.22;4.10;;;11.20;85.50;;;;;;5132623;27;20131;-70
2023/01/02 07:49:10;;;;;;;4.72;3.05;;;11.20;85.30;;;;;;5132547;27;20082;-69
2023/01/02 07:51:35;;;;;;;4.90;2.83;;;11.10;85.20;;;;;;5132417;27;20054;-70
2023/01/02 07:54:01;;;;;;;6.07;2.65;;;11.00;85.00;;;;;;5132478;28;20043;-70
2023/01/02 07:56:26;;;;;;;3.25;1.90;;;11.00;84.80;;;;;;5134256;27;20051;-70
2023/01/02 07:58:52;;;;;;;4.82;2.83;;;11.00;84.70;;;;;;5098861;28;20173;-70
2023/01/02 08:01:18;;;;;;;4.90;2.70;;;10.90;84.50;;;;;;5116764;28;20038;-69
2023/01/02 08:03:43;;;;;;;3.38;1.88;;;10.90;84.40;;;;;;5125538;27;20047;-69
2023/01/02 08:06:15;;;;;;;4.53;2.00;;;10.80;84.30;;;;;;5119499;27;20055;-70
2023/01/02 08:08:41;;;;;;;3.63;2.00;;;10.80;84.30;;;;;;5136485;27;20131;-70
2023/01/02 08:11:10;;;;;;;3.80;2.00;;;10.70;84.20;;;;;;5136960;27;20039;-70
2023/01/02 08:13:35;;;;;;;3.75;2.25;;;10.70;84.30;;;;;;5136507;27;20031;-70
2023/01/02 08:16:13;;;;;;;3.50;1.98;;;10.70;84.40;;;;;;5136220;27;20046;-70
2023/01/02 08:18:39;;;;;;;2.65;1.63;;;10.60;84.50;;;;;;5135105;27;20075;-69
2023/01/02 08:21:05;;;;;;;4.35;1.83;;;10.60;84.50;;;;;;5136200;27;20446;-70
2023/01/02 08:23:32;;;;;;;3.88;1.80;;;10.60;84.50;;;;;;5136066;27;20027;-70
2023/01/02 08:26:03;;;;;;;3.60;1.70;;;10.50;84.60;;;;;;5136170;27;20039;-70
2023/01/02 08:28:30;;;;;;;3.00;1.50;;;10.60;84.80;;;;;;5136150;27;20129;-68
2023/01/02 08:30:55;;;;;;;3.03;1.63;;;10.50;84.80;;;;;;5118436;27;20100;-68
2023/01/02 08:33:21;;;;;;;3.30;1.50;;;10.50;84.90;;;;;;5118866;27;20039;-68
2023/01/02 08:35:47;;;;;;;2.83;1.70;;;10.50;84.80;;;;;;5119113;27;20039;-68
2023/01/02 08:38:13;;;;;;;3.55;1.90;;;10.50;84.80;;;;;;5135924;27;20118;-68
2023/01/02 08:40:39;;;;;;;2.90;1.75;;;10.50;84.90;;;;;;5137506;27;20031;-70
2023/01/02 08:43:08;;;;;;;3.50;2.20;;;10.50;85.00;;;;;;5101970;27;20039;-68
2023/01/02 08:45:34;;;;;;;3.80;1.88;;;10.50;85.00;;;;;;5119015;27;20031;-68
2023/01/02 08:47:59;;;;;;;3.25;1.60;;;10.50;85.00;;;;;;5135806;27;20046;-68
2023/01/02 08:50:25;;;;;;;3.45;1.63;;;10.50;85.00;;;;;;5135914;27;20046;-68
2023/01/02 08:52:51;;;;;;;4.30;1.60;;;10.50;85.00;;;;;;5118432;27;20039;-68
2023/01/02 08:55:16;;;;;;;2.05;1.33;;;10.50;84.90;;;;;;5135688;27;20035;-68
2023/01/02 08:57:42;;;;;;;3.42;1.70;;;10.50;84.80;;;;;;5134489;27;20119;-68
2023/01/02 09:00:09;;;;;;;3.33;1.40;;;10.50;84.80;;;;;;5134944;27;20050;-68
2023/01/02 09:02:34;;;;;;;2.38;1.48;;;10.50;84.70;;;;;;5135261;27;20477;-68
2023/01/02 09:05:00;;;;;;;2.80;1.40;;;10.50;85.10;;;;;;5135544;27;20043;-69
2023/01/02 09:07:26;;;;;;;2.97;1.70;;;10.40;84.70;;;;;;5135658;27;20074;-69
2023/01/02 09:09:51;;;;;;;1.95;1.15;;;10.50;84.70;;;;;;5135549;27;20043;-68
2023/01/02 09:12:17;;;;;;;1.73;1.10;;;10.40;84.70;;;;;;5118340;27;20099;-68
2023/01/02 09:14:43;;;;;;;3.00;1.60;;;10.50;84.70;;;;;;5118369;27;20061;-69
2023/01/02 09:17:09;;;;;;;2.17;1.38;;;10.40;84.70;;;;;;5135088;27;20031;-68
2023/01/02 09:19:36;;;;;;;3.53;1.15;;;10.40;84.70;;;;;;5151054;27;20375;-69
2023/01/02 09:22:03;;;;;;;3.10;1.38;;;10.40;84.80;;;;;;5135060;27;20048;-69
2023/01/02 09:24:28;;;;;;;2.20;1.27;;;10.40;84.80;;;;;;5135315;27;20463;-69
2023/01/02 09:26:54;;;;;;;2.35;1.40;;;10.50;84.90;;;;;;5118091;27;20099;-70
2023/01/02 09:29:20;;;;;;;4.22;1.55;;;10.40;84.80;;;;;;5134970;27;20046;-70
2023/01/02 09:31:46;;;;;;;2.90;1.30;;;10.40;84.80;;;;;;5118051;27;20066;-70
2023/01/02 09:34:12;;;;;;;4.18;1.33;;;10.40;84.80;;;;;;5135042;27;20386;-70
2023/01/02 09:36:38;;;;;;;4.07;1.58;;;10.40;84.80;;;;;;5134301;27;20046;-70
2023/01/02 09:39:04;;;;;;;3.30;1.55;;;10.40;84.80;;;;;;5134836;27;20051;-70
2023/01/02 09:41:37;;;;;;;2.85;1.45;;;10.50;84.80;;;;;;5134908;27;20088;-70
2023/01/02 09:44:30;;;;;;;3.75;2.10;;;10.50;84.70;;;;;;5134797;27;20043;-70
2023/01/02 09:46:59;;;;;;;5.78;4.50;;;10.50;84.60;;;;;;5134803;27;20043;-70
2023/01/02 09:49:35;;;;;;;12.38;11.18;;;10.40;84.60;;;;;;5134670;27;20043;-69
2023/01/02 09:52:01;;;;;;;9.57;7.82;;;10.40;84.70;;;;;;5117374;27;20042;-69
2023/01/02 09:54:28;;;;;;;8.00;5.70;;;10.40;84.60;;;;;;5134696;27;20455;-69
2023/01/02 09:57:14;;;;;;;8.70;6.45;;;10.40;84.60;;;;;;5134492;27;20043;-69
2023/01/02 10:00:02;;;;;;;6.60;5.25;;;10.40;84.70;;;;;;5134551;27;20505;-69
2023/01/02 10:02:49;;;;;;;8.30;6.70;;;10.40;84.70;;;;;;5134598;27;20519;-69
2023/01/02 10:05:18;;;;;;;11.63;7.22;;;10.40;84.90;;;;;;5134654;27;20104;-70
2023/01/02 10:08:07;;;;;;;10.65;8.45;;;10.40;84.90;;;;;;5134279;27;20043;-70
2023/01/02 10:10:39;;;;;;;11.05;9.05;;;10.40;85.00;;;;;;5133064;27;20075;-69
2023/01/02 10:13:31;;;;;;;11.77;9.15;;;10.40;85.00;;;;;;5134234;27;20509;-69
2023/01/02 10:16:01;;;;;;;8.80;6.85;;;10.40;85.00;;;;;;5134406;27;20381;-69
2023/01/02 10:18:29;;;;;;;6.90;5.72;;;10.40;85.10;;;;;;5133561;27;20490;-69
2023/01/02 10:21:13;;;;;;;6.80;5.28;;;10.40;85.10;;;;;;5134079;27;20122;-69
2023/01/02 10:23:44;;;;;;;6.33;4.53;;;10.40;85.00;;;;;;5134066;27;20039;-70
2023/01/02 10:26:17;;;;;;;6.85;4.90;;;10.50;85.00;;;;;;5133594;27;20047;-70
2023/01/02 10:28:51;;;;;;;8.57;4.80;;;10.50;85.00;;;;;;5133797;27;20047;-70
2023/01/02 10:31:35;;;;;;;6.47;4.85;;;10.50;85.00;;;;;;5134062;27;20364;-70
2023/01/02 10:34:02;;;;;;;5.93;3.85;;;10.50;85.00;;;;;;5133666;27;20043;-69
2023/01/02 10:36:42;;;;;;;7.25;3.80;;;10.50;84.90;;;;;;5133690;27;20043;-69
2023/01/02 10:39:13;;;;;;;5.72;3.38;;;10.50;84.80;;;;;;5116571;27;20118;-69
2023/01/02 10:41:41;;;;;;;5.35;3.63;;;10.50;84.80;;;;;;5133723;27;20035;-70
2023/01/02 10:44:31;;;;;;;8.20;3.35;;;10.50;84.70;;;;;;5099516;27;20474;-70
2023/01/02 10:47:02;;;;;;;5.95;3.47;;;10.50;84.50;;;;;;5123752;27;20058;-69
2023/01/02 10:49:30;;;;;;;4.88;2.80;;;10.50;84.60;;;;;;5134179;27;20050;-69
2023/01/02 10:52:23;;;;;;;9.57;3.83;;;10.50;84.60;;;;;;5116294;27;20043;-69
2023/01/02 10:54:54;;;;;;;5.47;3.42;;;10.50;84.50;;;;;;5133696;27;20096;-69
2023/01/02 10:57:37;;;;;;;5.10;2.80;;;10.50;84.70;;;;;;5133321;27;20539;-69
2023/01/02 11:00:07;;;;;;;6.28;2.50;;;10.50;84.70;;;;;;5129924;27;20038;-69
2023/01/02 11:02:38;;;;;;;6.90;2.85;;;10.50;84.70;;;;;;5113071;28;20039;-69
2023/01/02 11:05:07;;;;;;;8.27;2.97;;;10.50;84.70;;;;;;5112793;28;20134;-69
2023/01/02 11:07:36;;;;;;;4.28;2.40;;;10.50;84.60;;;;;;5129989;27;20039;-69
2023/01/02 11:10:03;;;;;;;7.15;2.42;;;10.50;84.60;;;;;;5129549;27;20483;-69
2023/01/02 11:12:31;;;;;;;7.95;2.58;;;10.60;84.60;;;;;;5112434;28;20035;-69
2023/01/02 11:15:29;;;;;;;5.47;2.22;;;10.50;85.00;;;;;;5121407;27;20074;-69
2023/01/02 11:17:56;;;;;;;5.85;2.10;;;10.60;84.50;;;;;;5131923;27;20055;-69
2023/01/02 11:20:32;;;;;;;4.07;2.00;;;10.60;84.70;;;;;;5133229;27;20047;-69
2023/01/02 11:23:00;;;;;;;6.47;1.80;;;10.60;84.60;;;;;;5133223;27;20099;-69
2023/01/02 11:25:35;;;;;;;6.63;2.28;;;10.60;84.50;;;;;;5132870;27;20043;-69
2023/01/02 11:28:02;;;;;;;5.70;1.73;;;10.60;84.40;;;;;;5132822;27;20058;-69
2023/01/02 11:30:34;;;;;;;5.03;1.73;;;10.60;84.30;;;;;;5132093;27;20489;-69
2023/01/02 11:33:12;;;;;;;5.03;1.90;;;10.60;84.20;;;;;;5132394;27;20047;-69
2023/01/02 11:35:44;;;;;;;6.20;1.80;;;10.60;84.00;;;;;;5115701;27;20383;-69
2023/01/02 11:38:18;;;;;;;7.38;1.67;;;10.60;83.90;;;;;;5132686;27;20035;-69
2023/01/02 11:40:56;;;;;;;8.32;1.50;;;10.60;83.90;;;;;;5132729;27;20172;-69
2023/01/02 11:43:47;;;;;;;9.27;2.15;;;10.60;83.80;;;;;;5132658;27;20123;-69
2023/01/02 11:46:33;;;;;;;7.68;2.50;;;10.60;83.80;;;;;;5132866;27;20081;-69
2023/01/02 11:49:06;;;;;;;6.68;2.13;;;10.60;83.60;;;;;;5132504;27;20039;-69
2023/01/02 11:51:37;;;;;;;5.43;1.65;;;10.60;83.80;;;;;;5133061;27;20103;-68
2023/01/02 11:54:11;;;;;;;6.72;1.85;;;10.60;83.70;;;;;;5132515;28;20035;-69
2023/01/02 11:56:40;;;;;;;8.60;3.25;;;10.60;83.80;;;;;;5149950;27;20376;-69
2023/01/02 11:59:29;;;;;;;5.28;2.03;;;10.60;83.70;;;;;;5132418;27;20035;-69
2023/01/02 12:02:36;;;;;;;5.13;1.30;;;10.60;83.60;;;;;;5132538;27;20050;-69
2023/01/02 12:05:07;;;;;;;5.03;1.55;;;10.60;83.80;;;;;;5087822;27;20050;-69
2023/01/02 12:07:35;;;;;;;5.45;1.35;;;10.60;83.70;;;;;;5132541;27;20058;-69
2023/01/02 12:10:29;;;;;;;4.72;1.33;;;10.60;83.70;;;;;;5115354;28;20482;-69
2023/01/02 12:13:07;;;;;;;8.27;1.83;;;10.60;83.60;;;;;;5121540;27;20457;-69
2023/01/02 12:15:41;;;;;;;7.25;1.70;;;10.60;83.50;;;;;;5115596;28;20043;-69
2023/01/02 12:18:20;;;;;;;6.80;1.50;;;10.60;83.40;;;;;;5115102;28;20700;-69
2023/01/02 12:21:00;;;;;;;6.55;1.63;;;10.60;83.40;;;;;;5132067;27;20075;-69
2023/01/02 12:24:02;;;;;;;8.98;1.75;;;10.60;83.40;;;;;;5132124;27;20537;-69
2023/01/02 12:26:53;;;;;;;7.53;1.35;;;10.60;83.20;;;;;;5132279;28;20047;-69
2023/01/02 12:29:38;;;;;;;9.00;1.52;;;10.60;83.30;;;;;;5132195;28;20172;-69
2023/01/02 12:32:16;;;;;;;10.68;1.95;;;10.60;83.20;;;;;;5132044;28;20068;-69
2023/01/02 12:34:41;;;;;;;7.50;1.60;;;10.60;83.10;;;;;;5115207;28;20035;-69
2023/01/02 12:37:24;;;;;;;7.25;1.55;;;10.60;83.10;;;;;;5133216;28;20482;-69
2023/01/02 12:40:33;;;;;;;6.75;1.33;;;10.60;82.90;;;;;;5131899;27;20173;-69
2023/01/02 12:43:02;;;;;;;7.43;1.73;;;10.60;82.80;;;;;;5134527;27;20046;-69
2023/01/02 12:45:31;;;;;;;9.60;2.10;;;10.60;83.00;;;;;;5135926;27;20482;-69
2023/01/02 12:48:28;;;;;;;8.68;2.00;;;10.60;83.00;;;;;;5135857;27;20088;-69
2023/01/02 12:51:06;;;;;;;7.35;1.80;;;10.60;82.80;;;;;;5135893;27;20058;-69
2023/01/02 12:54:06;;;;;;;7.88;1.90;;;10.60;82.90;;;;;;5135535;27;20039;-69
2023/01/02 12:57:03;;;;;;;6.82;1.98;;;10.60;82.70;;;;;;5115149;28;20039;-69
2023/01/02 12:59:51;;;;;;;8.20;1.63;;;10.70;82.90;;;;;;5115170;28;20556;-69
2023/01/02 13:02:49;;;;;;;6.55;1.70;;;10.60;82.80;;;;;;5132289;27;20164;-69
2023/01/02 13:05:19;;;;;;;7.22;1.77;;;10.70;82.90;;;;;;5067860;28;20065;-69
2023/01/02 13:07:53;;;;;;;10.65;2.05;;;10.70;82.90;;;;;;5115202;28;20066;-69
2023/01/02 13:10:23;;;;;;;8.82;2.92;;;10.70;82.90;;;;;;5129915;27;20133;-69